Time;durP1;ratioP1;P1;durP2;ratioP2;P2;SDS_P1;SDS_P2;PMS_P1;PMS_P2;Temp;Humidity;BMP_temperature;BMP_pressure;BME280_temperature;BME280_humidity;BME280_pressure;Samples;Min_cycle;Max_cycle;Signal;HPM_P1;HPM_P2
2022/12/12 00:00:22;;;;;;;2.40;2.30;;;;;;;-0.73;100.00;101011.69;4929524;29;20114;-64
2022/12/12 00:02:48;;;;;;;2.58;2.47;;;;;;;-0.80;100.00;101018.72;4929687;29;20039;-64
2022/12/12 00:05:15;;;;;;;2.80;2.60;;;;;;;-0.88;100.00;101018.63;4930126;29;20040;-64
2022/12/12 00:07:40;;;;;;;2.90;2.70;;;;;;;-0.97;100.00;101019.53;4930278;29;20031;-64
2022/12/12 00:10:06;;;;;;;2.60;2.50;;;;;;;-1.06;100.00;101024.84;4930321;29;20036;-64
2022/12/12 00:12:32;;;;;;;2.72;2.60;;;;;;;-1.13;100.00;101023.72;4930581;29;20047;-63
2022/12/12 00:14:57;;;;;;;2.90;2.70;;;;;;;-1.24;100.00;101029.34;4929916;29;20390;-64
2022/12/12 00:17:22;;;;;;;2.67;2.58;;;;;;;-1.29;100.00;101020.84;4929872;29;20035;-64
2022/12/12 00:19:48;;;;;;;3.00;2.80;;;;;;;-1.34;100.00;101025.84;4930806;29;20411;-64
2022/12/12 00:22:13;;;;;;;2.83;2.63;;;;;;;-1.37;100.00;101023.44;4926458;29;20142;-64
2022/12/12 00:24:38;;;;;;;2.80;2.60;;;;;;;-1.42;100.00;101023.03;4929590;29;20032;-64
2022/12/12 00:27:03;;;;;;;2.90;2.70;;;;;;;-1.48;100.00;101020.94;4929764;29;20383;-64
2022/12/12 00:29:29;;;;;;;3.00;2.50;;;;;;;-1.56;100.00;101021.69;4929966;29;20031;-64
2022/12/12 00:31:54;;;;;;;2.90;2.70;;;;;;;-1.59;100.00;101022.81;4928882;29;20023;-64
2022/12/12 00:34:19;;;;;;;2.88;2.67;;;;;;;-1.66;100.00;101021.72;4930380;29;20122;-64
2022/12/12 00:36:45;;;;;;;2.78;2.63;;;;;;;-1.71;100.00;101018.63;4929937;29;20023;-64
2022/12/12 00:39:10;;;;;;;2.80;2.60;;;;;;;-1.76;100.00;101026.28;4931510;29;20028;-64
2022/12/12 00:41:36;;;;;;;2.70;2.55;;;;;;;-1.81;100.00;101025.88;4932435;29;20035;-64
2022/12/12 00:44:02;;;;;;;2.80;2.70;;;;;;;-1.83;100.00;101033.25;4921524;29;20032;-64
2022/12/12 00:46:27;;;;;;;2.80;2.70;;;;;;;-1.87;100.00;101034.56;4930567;29;20055;-64
2022/12/12 00:48:54;;;;;;;3.03;2.83;;;;;;;-1.88;100.00;101030.97;4933811;29;20036;-64
2022/12/12 00:51:22;;;;;;;2.95;2.75;;;;;;;-1.93;100.00;101029.72;4933172;29;20039;-63
2022/12/12 00:53:50;;;;;;;3.10;2.90;;;;;;;-1.95;100.00;101031.72;4934314;29;20028;-64
2022/12/12 00:56:17;;;;;;;2.90;2.70;;;;;;;-2.00;100.00;101028.63;4933608;29;20032;-63
2022/12/12 00:58:42;;;;;;;2.78;2.58;;;;;;;-2.02;100.00;101025.25;4932335;29;20028;-64
2022/12/12 01:01:13;;;;;;;3.10;2.90;;;;;;;-2.12;100.00;101028.78;4933120;29;20443;-64
2022/12/12 01:03:40;;;;;;;3.10;2.90;;;;;;;-2.11;100.00;101032.31;4934266;29;20352;-63
2022/12/12 01:06:06;;;;;;;3.10;2.90;;;;;;;-2.12;100.00;101039.56;4933498;29;20023;-63
2022/12/12 01:08:31;;;;;;;3.00;2.80;;;;;;;-2.15;100.00;101037.13;4934793;29;20036;-64
2022/12/12 01:10:57;;;;;;;2.90;2.70;;;;;;;-2.17;100.00;101044.50;4933038;29;20446;-64
2022/12/12 01:13:22;;;;;;;3.08;2.88;;;;;;;-2.18;100.00;101042.81;4933006;29;20044;-64
2022/12/12 01:15:48;;;;;;;3.10;2.90;;;;;;;-2.18;100.00;101047.31;4932491;29;20044;-65
2022/12/12 01:18:14;;;;;;;3.20;3.00;;;;;;;-2.18;100.00;101048.22;4933777;29;20054;-63
2022/12/12 01:20:40;;;;;;;2.90;2.70;;;;;;;-2.15;100.00;101050.59;4932899;29;20127;-64
2022/12/12 01:23:06;;;;;;;3.00;2.80;;;;;;;-2.14;100.00;101051.44;4933207;29;20091;-63
2022/12/12 01:25:31;;;;;;;3.30;3.10;;;;;;;-2.17;100.00;101055.28;4931499;29;20071;-63
2022/12/12 01:27:58;;;;;;;3.15;2.95;;;;;;;-2.17;100.00;101055.28;4934215;29;20031;-64
2022/12/12 01:30:23;;;;;;;3.42;3.20;;;;;;;-2.17;100.00;101062.50;4932410;29;20028;-63
2022/12/12 01:32:49;;;;;;;3.20;3.00;;;;;;;-2.16;100.00;101056.97;4932682;29;20534;-64
2022/12/12 01:35:15;;;;;;;3.10;2.90;;;;;;;-2.16;100.00;101069.56;4933060;29;20099;-64
2022/12/12 01:37:40;;;;;;;3.25;3.05;;;;;;;-2.15;100.00;101072.13;4933708;29;20036;-63
2022/12/12 01:40:12;;;;;;;3.38;3.17;;;;;;;-2.16;100.00;101067.72;4932856;29;20035;-64
2022/12/12 01:42:37;;;;;;;3.15;2.95;;;;;;;-2.17;100.00;101065.19;4933645;29;20399;-64
2022/12/12 01:45:03;;;;;;;3.10;2.90;;;;;;;-2.20;100.00;101073.53;4931927;29;20242;-63
2022/12/12 01:47:28;;;;;;;3.10;2.90;;;;;;;-2.23;100.00;101072.00;4932503;29;20034;-64
2022/12/12 01:50:01;;;;;;;3.42;3.22;;;;;;;-2.25;100.00;101079.34;4933404;29;20024;-63
2022/12/12 01:52:36;;;;;;;3.28;3.03;;;;;;;-2.27;100.00;101080.50;4932229;29;20477;-63
2022/12/12 01:55:04;;;;;;;3.15;2.95;;;;;;;-2.32;100.00;101083.59;4931693;29;20024;-64
2022/12/12 01:57:33;;;;;;;3.40;3.20;;;;;;;-2.41;100.00;101079.91;4933489;29;20032;-63
2022/12/12 02:00:01;;;;;;;3.05;2.85;;;;;;;-2.49;100.00;101086.97;4932029;29;20038;-64
2022/12/12 02:02:28;;;;;;;3.00;2.80;;;;;;;-2.54;100.00;101086.53;4932060;29;20099;-64
2022/12/12 02:04:54;;;;;;;2.92;2.72;;;;;;;-2.59;100.00;101083.44;4930993;29;20031;-64
2022/12/12 02:07:19;;;;;;;3.17;2.97;;;;;;;-2.64;100.00;101082.00;4931584;29;20092;-63
2022/12/12 02:09:46;;;;;;;3.00;2.80;;;;;;;-2.65;100.00;101088.38;4933017;29;20340;-64
2022/12/12 02:12:13;;;;;;;2.97;2.78;;;;;;;-2.67;100.00;101098.44;4931907;29;20032;-63
2022/12/12 02:14:41;;;;;;;3.20;3.00;;;;;;;-2.63;100.00;101091.78;4929703;29;20123;-64
2022/12/12 02:17:25;;;;;;;3.28;3.00;;;;;;;-2.59;100.00;101092.34;4932486;29;20383;-64
2022/12/12 02:19:53;;;;;;;3.10;2.90;;;;;;;-2.55;100.00;101085.69;4931188;29;20479;-63
2022/12/12 02:22:57;;;;;;;3.00;2.80;;;;;;;-2.49;100.00;101095.03;4931394;29;20495;-63
2022/12/12 02:25:47;;;;;;;3.20;3.00;;;;;;;-2.50;100.00;101088.81;4928067;29;20040;-64
2022/12/12 02:28:18;;;;;;;3.20;3.00;;;;;;;-2.47;100.00;101095.78;4932370;29;20035;-63
2022/12/12 02:31:01;;;;;;;3.30;3.10;;;;;;;-2.46;100.00;101097.47;4932485;29;20059;-63
2022/12/12 02:33:42;;;;;;;3.20;3.00;;;;;;;-2.48;100.00;101088.69;4931522;29;20024;-63
2022/12/12 02:36:39;;;;;;;3.50;3.30;;;;;;;-2.48;100.00;101099.47;4931138;29;20398;-64
2022/12/12 02:39:14;;;;;;;3.20;3.00;;;;;;;-2.54;100.00;101097.31;4932963;29;20036;-63
2022/12/12 02:41:48;;;;;;;3.35;3.10;;;;;;;-2.56;100.00;101092.06;4930687;29;20028;-63
2022/12/12 02:44:41;;;;;;;3.50;3.30;;;;;;;-2.57;100.00;101089.53;4930105;29;20063;-63
2022/12/12 02:47:13;;;;;;;3.22;3.03;;;;;;;-2.62;100.00;101093.47;4931859;29;20102;-64
2022/12/12 02:49:51;;;;;;;3.33;3.13;;;;;;;-2.65;100.00;101085.69;4928267;29;20032;-64
2022/12/12 02:52:16;;;;;;;3.30;3.10;;;;;;;-2.66;100.00;101089.38;4931280;29;20458;-63
2022/12/12 02:54:42;;;;;;;3.50;3.30;;;;;;;-2.69;100.00;101097.69;4931142;29;20039;-63
2022/12/12 02:57:22;;;;;;;3.67;3.47;;;;;;;-2.73;100.00;101093.63;4932240;29;20059;-63
2022/12/12 03:00:08;;;;;;;3.20;3.00;;;;;;;-2.77;100.00;101094.03;4930961;29;20062;-64
2022/12/12 03:09:26;;;;;;;3.30;3.10;;;;;;;-3.01;100.00;101084.47;4924993;29;20119;-64
2022/12/12 03:12:11;;;;;;;3.20;3.00;;;;;;;-3.02;100.00;101087.31;4931365;29;20118;-64
2022/12/12 03:14:49;;;;;;;3.53;3.33;;;;;;;-3.07;100.00;101095.78;4931849;29;20043;-63
2022/12/12 03:17:25;;;;;;;3.35;3.15;;;;;;;-3.10;100.00;101087.13;4932227;29;20114;-63
2022/12/12 03:20:21;;;;;;;3.40;3.20;;;;;;;-3.11;100.00;101094.34;4930540;29;20138;-63
2022/12/12 03:23:12;;;;;;;3.35;3.15;;;;;;;-3.15;100.00;101091.06;4929893;29;20046;-63
2022/12/12 03:25:58;;;;;;;3.20;3.00;;;;;;;-3.20;100.00;101093.31;4929537;29;20044;-63
2022/12/12 03:28:35;;;;;;;2.97;2.78;;;;;;;-3.22;100.00;101094.47;4931729;29;20039;-63
2022/12/12 03:31:05;;;;;;;3.33;3.13;;;;;;;-3.30;100.00;101081.69;4912766;29;20020;-64
2022/12/12 03:33:42;;;;;;;3.17;2.97;;;;;;;-3.34;100.00;101096.41;4913189;29;20412;-63
2022/12/12 03:36:20;;;;;;;3.40;3.20;;;;;;;-3.37;100.00;101085.06;4925506;29;20063;-63
2022/12/12 03:39:11;;;;;;;3.40;3.20;;;;;;;-3.39;100.00;101098.63;4931624;29;20091;-63
2022/12/12 03:41:51;;;;;;;3.42;3.22;;;;;;;-3.43;100.00;101094.50;4929539;29;20043;-64
2022/12/12 03:44:21;;;;;;;3.35;3.15;;;;;;;-3.49;100.00;101103.09;4931790;29;20094;-63
2022/12/12 03:46:52;;;;;;;3.13;2.92;;;;;;;-3.55;100.00;101095.56;4931198;29;20032;-63
2022/12/12 03:49:24;;;;;;;3.45;3.25;;;;;;;-3.57;100.00;101097.53;4931946;29;20110;-64
2022/12/12 03:52:00;;;;;;;3.53;3.30;;;;;;;-3.57;100.00;101100.22;4930319;29;20032;-63
2022/12/12 03:54:32;;;;;;;3.55;3.35;;;;;;;-3.62;100.00;101095.25;4930015;29;20055;-63
2022/12/12 03:57:02;;;;;;;3.35;3.15;;;;;;;-3.66;100.00;101097.34;4930933;29;20115;-63
2022/12/12 03:59:34;;;;;;;3.30;3.10;;;;;;;-3.70;100.00;101101.31;4930867;29;20031;-64
2022/12/12 04:02:26;;;;;;;3.22;3.03;;;;;;;-3.73;100.00;101101.56;4930178;29;20359;-63
2022/12/12 04:05:17;;;;;;;3.35;3.15;;;;;;;-3.79;100.00;101102.09;4929983;29;20043;-63
2022/12/12 04:07:48;;;;;;;3.20;3.00;;;;;;;-3.85;100.00;101105.31;4930584;29;20153;-63
2022/12/12 04:13:11;;;;;;;3.33;3.13;;;;;;;-3.84;100.00;101108.84;4928903;29;20050;-63
2022/12/12 04:15:54;;;;;;;3.60;3.30;;;;;;;-3.84;100.00;101120.41;4930181;29;20024;-63
2022/12/12 04:18:32;;;;;;;3.58;3.28;;;;;;;-3.86;100.00;101111.63;4930932;29;20024;-64
2022/12/12 04:24:29;;;;;;;3.33;3.13;;;;;;;-3.88;100.00;101118.97;4930567;29;20118;-63
2022/12/12 04:27:53;;;;;;;3.42;3.22;;;;;;;-3.88;100.00;101110.91;4930025;29;20111;-63
2022/12/12 04:30:19;;;;;;;3.40;3.20;;;;;;;-3.94;100.00;101114.13;4872126;29;20037;-63
2022/12/12 04:32:51;;;;;;;3.42;3.15;;;;;;;-3.96;100.00;101113.41;4871652;29;20047;-63
2022/12/12 04:35:22;;;;;;;3.60;3.30;;;;;;;-3.98;100.00;101116.22;4908909;29;20040;-63
2022/12/12 04:37:52;;;;;;;3.60;3.30;;;;;;;-3.99;100.00;101116.34;4930791;29;20029;-64
2022/12/12 04:40:22;;;;;;;3.30;3.10;;;;;;;-4.01;100.00;101119.16;4930639;29;20187;-63
2022/12/12 04:42:56;;;;;;;3.28;3.08;;;;;;;-4.01;100.00;101127.19;4926257;29;20036;-63
2022/12/12 04:45:28;;;;;;;3.70;3.40;;;;;;;-4.04;100.00;101130.16;4930504;29;20460;-63
2022/12/12 04:47:55;;;;;;;3.50;3.28;;;;;;;-4.03;100.00;101139.06;4930705;29;20028;-63
2022/12/12 04:50:24;;;;;;;3.78;3.50;;;;;;;-4.01;100.00;101135.25;4924442;29;20447;-63
2022/12/12 04:52:52;;;;;;;3.45;3.25;;;;;;;-3.99;100.00;101135.97;4911800;29;20032;-65
2022/12/12 04:55:36;;;;;;;3.60;3.40;;;;;;;-3.96;100.00;101134.84;4924973;29;20043;-64
2022/12/12 04:58:04;;;;;;;3.80;3.50;;;;;;;-3.99;100.00;101122.56;4930004;29;20032;-63
2022/12/12 05:00:38;;;;;;;3.85;3.60;;;;;;;-3.98;100.00;101131.47;4926619;29;20028;-63
2022/12/12 05:03:16;;;;;;;3.90;3.60;;;;;;;-3.99;100.00;101125.25;4930758;29;20051;-63
2022/12/12 05:05:47;;;;;;;3.80;3.50;;;;;;;-4.02;100.00;101130.00;4929491;29;20167;-63
2022/12/12 05:08:22;;;;;;;3.55;3.35;;;;;;;-4.06;100.00;101126.72;4930464;29;20024;-63
2022/12/12 05:10:53;;;;;;;3.55;3.35;;;;;;;-4.09;100.00;101128.84;4930003;29;20534;-63
2022/12/12 05:13:22;;;;;;;3.75;3.55;;;;;;;-4.11;100.00;101125.41;4928162;29;20039;-63
2022/12/12 05:15:49;;;;;;;3.63;3.42;;;;;;;-4.11;100.00;101128.09;4928740;29;20039;-64
2022/12/12 05:18:14;;;;;;;3.63;3.43;;;;;;;-4.11;100.00;101120.91;4930231;29;20043;-64
2022/12/12 05:20:40;;;;;;;3.50;3.30;;;;;;;-4.13;100.00;101125.56;4927834;29;20052;-64
2022/12/12 05:23:05;;;;;;;3.70;3.40;;;;;;;-4.15;100.00;101124.00;4930435;29;20158;-64
2022/12/12 05:25:31;;;;;;;3.70;3.45;;;;;;;-4.20;100.00;101127.06;4928851;29;20031;-64
2022/12/12 05:27:56;;;;;;;3.60;3.40;;;;;;;-4.25;100.00;101134.66;4931032;29;20110;-63
2022/12/12 05:30:21;;;;;;;3.60;3.40;;;;;;;-4.32;100.00;101130.75;4934009;29;20070;-64
2022/12/12 05:32:47;;;;;;;3.42;3.22;;;;;;;-4.37;100.00;101131.13;4933058;29;20032;-64
2022/12/12 05:35:12;;;;;;;3.53;3.33;;;;;;;-4.43;100.00;101137.84;4933105;29;20115;-64
2022/12/12 05:37:38;;;;;;;3.80;3.50;;;;;;;-4.46;100.00;101137.25;4927268;29;20046;-64
2022/12/12 05:40:07;;;;;;;3.53;3.33;;;;;;;-4.49;100.00;101142.88;4929371;29;20503;-64
2022/12/12 05:42:32;;;;;;;3.53;3.33;;;;;;;-4.52;100.00;101145.81;4933036;29;20554;-63
2022/12/12 05:44:57;;;;;;;3.45;3.25;;;;;;;-4.55;100.00;101143.41;4932617;29;20039;-64
2022/12/12 05:47:23;;;;;;;3.60;3.40;;;;;;;-4.57;100.00;101148.00;4933313;29;20027;-63
2022/12/12 05:49:48;;;;;;;3.53;3.30;;;;;;;-4.58;100.00;101152.53;4930578;29;20447;-63
2022/12/12 05:52:14;;;;;;;3.55;3.35;;;;;;;-4.59;100.00;101144.63;4931404;29;20487;-64
2022/12/12 05:54:39;;;;;;;3.50;3.30;;;;;;;-4.62;100.00;101151.06;4931893;29;20103;-63
2022/12/12 05:57:05;;;;;;;3.67;3.38;;;;;;;-4.64;100.00;101149.50;4931361;29;20464;-63
2022/12/12 05:59:30;;;;;;;3.78;3.47;;;;;;;-4.65;100.00;101155.84;4930526;29;20118;-64
2022/12/12 06:01:56;;;;;;;3.40;3.20;;;;;;;-4.65;100.00;101145.97;4929736;29;20256;-64
2022/12/12 06:04:21;;;;;;;3.80;3.50;;;;;;;-4.65;100.00;101151.34;4929740;29;20441;-63
2022/12/12 06:06:46;;;;;;;3.53;3.33;;;;;;;-4.64;100.00;101150.34;4928256;29;20024;-63
2022/12/12 06:09:11;;;;;;;3.40;3.20;;;;;;;-4.66;100.00;101149.63;4930125;29;20028;-63
2022/12/12 06:11:37;;;;;;;3.60;3.40;;;;;;;-4.69;100.00;101147.19;4929267;29;20539;-63
2022/12/12 06:14:02;;;;;;;3.80;3.50;;;;;;;-4.72;100.00;101147.44;4930749;29;20233;-63
2022/12/12 06:16:28;;;;;;;4.00;3.70;;;;;;;-4.77;100.00;101150.47;4931806;29;20055;-63
2022/12/12 06:18:54;;;;;;;3.95;3.65;;;;;;;-4.79;100.00;101156.94;4931086;29;20035;-63
2022/12/12 06:21:19;;;;;;;3.80;3.50;;;;;;;-4.79;100.00;101155.13;4931143;29;20056;-63
2022/12/12 06:23:46;;;;;;;3.63;3.33;;;;;;;-4.82;100.00;101155.34;4931218;29;20067;-63
2022/12/12 06:26:13;;;;;;;3.70;3.40;;;;;;;-4.82;100.00;101159.88;4931607;29;20459;-63
2022/12/12 06:28:38;;;;;;;3.53;3.30;;;;;;;-4.81;100.00;101156.25;4932033;29;20051;-64
2022/12/12 06:31:05;;;;;;;3.97;3.67;;;;;;;-4.79;100.00;101151.59;4931790;29;20051;-64
2022/12/12 06:33:34;;;;;;;4.20;3.90;;;;;;;-4.77;100.00;101161.19;4931928;29;20058;-63
2022/12/12 06:36:10;;;;;;;4.00;3.70;;;;;;;-4.77;100.00;101166.56;4930732;29;20111;-63
2022/12/12 06:38:37;;;;;;;3.88;3.58;;;;;;;-4.79;100.00;101168.53;4931628;29;20102;-64
2022/12/12 06:41:07;;;;;;;4.13;3.72;;;;;;;-4.81;100.00;101165.13;4931168;29;20027;-63
2022/12/12 06:43:32;;;;;;;4.13;3.83;;;;;;;-4.84;100.00;101170.72;4931464;29;20050;-63
2022/12/12 06:46:03;;;;;;;4.03;3.72;;;;;;;-4.87;100.00;101170.94;4931236;29;20028;-63
2022/12/12 06:48:30;;;;;;;3.75;3.50;;;;;;;-4.89;100.00;101170.25;4928255;29;20024;-63
2022/12/12 06:50:55;;;;;;;3.97;3.67;;;;;;;-4.91;100.00;101176.72;4930254;29;20038;-63
2022/12/12 06:53:20;;;;;;;4.10;3.80;;;;;;;-4.92;100.00;101175.81;4931304;29;20059;-63
2022/12/12 06:55:45;;;;;;;3.88;3.58;;;;;;;-4.92;100.00;101183.88;4930680;29;20032;-63
2022/12/12 06:58:11;;;;;;;4.15;3.85;;;;;;;-4.93;100.00;101197.38;4931861;29;20019;-63
2022/12/12 07:00:36;;;;;;;4.20;3.80;;;;;;;-4.97;100.00;101197.66;4930863;29;20039;-62
2022/12/12 07:03:02;;;;;;;3.80;3.50;;;;;;;-4.98;100.00;101193.25;4931267;29;20027;-63
2022/12/12 07:05:27;;;;;;;3.90;3.60;;;;;;;-5.02;100.00;101188.25;4929825;29;20035;-63
2022/12/12 07:07:53;;;;;;;4.25;3.95;;;;;;;-5.05;100.00;101185.84;4931013;29;20114;-63
2022/12/12 07:10:18;;;;;;;3.97;3.67;;;;;;;-5.08;100.00;101192.28;4930955;29;20027;-63
2022/12/12 07:12:44;;;;;;;3.90;3.60;;;;;;;-5.09;100.00;101192.41;4930533;29;20027;-63
2022/12/12 07:15:10;;;;;;;3.88;3.58;;;;;;;-5.11;100.00;101197.03;4931405;29;20052;-63
2022/12/12 07:17:35;;;;;;;3.88;3.58;;;;;;;-5.13;100.00;101199.81;4931306;29;20122;-63
2022/12/12 07:20:00;;;;;;;4.00;3.70;;;;;;;-5.12;100.00;101214.06;4928475;29;20030;-63
2022/12/12 07:22:25;;;;;;;3.88;3.58;;;;;;;-5.10;100.00;101204.94;4930614;29;20388;-63
2022/12/12 07:24:51;;;;;;;3.80;3.50;;;;;;;-5.11;100.00;101213.09;4930569;29;20035;-63
2022/12/12 07:27:17;;;;;;;3.97;3.67;;;;;;;-5.15;100.00;101222.34;4930244;29;20024;-63
2022/12/12 07:29:42;;;;;;;3.95;3.65;;;;;;;-5.19;100.00;101223.56;4930752;29;20031;-63
2022/12/12 07:32:08;;;;;;;4.22;3.92;;;;;;;-5.22;100.00;101221.97;4930779;29;20079;-63
2022/12/12 07:34:33;;;;;;;4.07;3.78;;;;;;;-5.23;100.00;101220.25;4929894;29;20574;-63
2022/12/12 07:36:58;;;;;;;3.75;3.50;;;;;;;-5.23;100.00;101220.25;4929884;29;20111;-63
2022/12/12 07:39:24;;;;;;;4.05;3.75;;;;;;;-5.23;100.00;101215.75;4930604;29;20365;-63
2022/12/12 07:41:49;;;;;;;3.60;3.40;;;;;;;-5.25;100.00;101215.03;4929842;29;20036;-63
2022/12/12 07:44:15;;;;;;;3.80;3.50;;;;;;;-5.28;100.00;101225.09;4930234;29;20070;-64
2022/12/12 07:46:40;;;;;;;3.90;3.60;;;;;;;-5.28;100.00;101217.94;4930413;29;20036;-63
2022/12/12 07:49:06;;;;;;;4.05;3.75;;;;;;;-5.24;100.00;101214.03;4930066;29;20419;-63
2022/12/12 07:51:31;;;;;;;4.10;3.80;;;;;;;-5.17;100.00;101214.44;4929323;29;20563;-63
2022/12/12 07:53:56;;;;;;;4.03;3.72;;;;;;;-5.13;100.00;101223.06;4930139;29;20541;-63
2022/12/12 07:56:22;;;;;;;4.50;4.10;;;;;;;-5.10;100.00;101217.47;4928693;29;20031;-63
2022/12/12 07:58:47;;;;;;;4.30;3.90;;;;;;;-5.03;100.00;101222.22;4930022;29;20062;-63
2022/12/12 08:01:14;;;;;;;4.03;3.72;;;;;;;-4.93;100.00;101226.84;4929982;29;20035;-64
2022/12/12 08:03:40;;;;;;;4.47;4.10;;;;;;;-4.89;100.00;101234.53;4930464;29;20589;-63
2022/12/12 08:06:06;;;;;;;4.10;3.70;;;;;;;-4.87;100.00;101227.22;4929359;29;20115;-63
2022/12/12 08:08:32;;;;;;;4.35;3.95;;;;;;;-4.84;100.00;101228.81;4930241;29;20669;-63
2022/12/12 08:10:57;;;;;;;4.28;3.90;;;;;;;-4.72;100.00;101231.34;4929316;29;20124;-63
2022/12/12 08:13:22;;;;;;;4.20;3.90;;;;;;;-4.28;100.00;101234.09;4930015;29;20051;-63
2022/12/12 08:15:47;;;;;;;4.35;4.00;;;;;;;-3.78;100.00;101237.97;4929555;29;20112;-63
2022/12/12 08:18:13;;;;;;;3.95;3.65;;;;;;;-3.32;100.00;101239.44;4930751;29;20031;-63
2022/12/12 08:20:39;;;;;;;3.90;3.60;;;;;;;-3.10;100.00;101233.06;4928505;29;20534;-64
2022/12/12 08:23:05;;;;;;;3.35;3.15;;;;;;;-3.24;100.00;101236.09;4929770;29;20439;-63
2022/12/12 08:25:32;;;;;;;3.92;3.63;;;;;;;-3.16;100.00;101238.97;4925650;29;20035;-63
2022/12/12 08:27:57;;;;;;;4.57;4.27;;;;;;;-2.90;100.00;101236.69;4929609;29;20497;-63
2022/12/12 08:30:22;;;;;;;4.38;4.00;;;;;;;-2.70;100.00;101230.41;4930691;29;20118;-63
2022/12/12 08:32:48;;;;;;;4.00;3.70;;;;;;;-2.45;100.00;101249.75;4930545;29;20028;-63
2022/12/12 08:35:13;;;;;;;4.38;4.00;;;;;;;-2.10;100.00;101244.75;4925526;29;20043;-64
2022/12/12 08:37:38;;;;;;;4.10;3.80;;;;;;;-1.95;100.00;101241.66;4931644;29;20496;-64
2022/12/12 08:40:04;;;;;;;4.30;4.00;;;;;;;-1.72;99.14;101243.13;4929256;29;20032;-63
2022/12/12 08:42:29;;;;;;;3.83;3.53;;;;;;;-1.37;98.70;101247.03;4922430;29;20028;-63
2022/12/12 08:44:55;;;;;;;3.45;3.25;;;;;;;-0.69;96.33;101247.75;4917184;29;20439;-63
2022/12/12 08:47:20;;;;;;;3.42;3.22;;;;;;;-0.53;92.75;101252.50;4912762;29;20035;-63
2022/12/12 08:49:46;;;;;;;3.80;3.50;;;;;;;-0.68;92.50;101249.44;4921203;29;20048;-63
2022/12/12 08:52:11;;;;;;;3.42;3.20;;;;;;;-0.76;91.90;101243.94;4930087;29;20039;-63
2022/12/12 08:54:36;;;;;;;3.40;3.20;;;;;;;-1.00;92.21;101249.84;4929614;29;20035;-63
2022/12/12 08:57:02;;;;;;;3.30;3.10;;;;;;;-1.18;93.27;101255.09;4929245;29;20267;-63
2022/12/12 08:59:27;;;;;;;3.53;3.30;;;;;;;-1.32;93.90;101251.03;4929602;29;20031;-63
2022/12/12 09:01:53;;;;;;;3.70;3.40;;;;;;;-1.37;94.48;101249.72;4931531;29;20047;-63
2022/12/12 09:04:18;;;;;;;3.75;3.45;;;;;;;-1.42;95.22;101252.00;4932862;29;20035;-63
2022/12/12 09:06:44;;;;;;;3.40;3.20;;;;;;;-1.14;94.74;101258.38;4931630;29;20034;-63
2022/12/12 09:09:10;;;;;;;3.70;3.40;;;;;;;-1.01;93.73;101263.44;4932315;29;20522;-63
2022/12/12 09:11:35;;;;;;;3.72;3.42;;;;;;;-0.70;93.18;101266.78;4932734;29;20031;-63
2022/12/12 09:14:00;;;;;;;3.83;3.53;;;;;;;-0.64;92.03;101263.47;4932799;29;20394;-63
2022/12/12 09:16:28;;;;;;;3.33;3.13;;;;;;;-0.38;92.36;101261.81;4933192;29;20031;-63
2022/12/12 09:18:53;;;;;;;3.67;3.38;;;;;;;-0.26;90.97;101259.75;4932423;29;20042;-64
2022/12/12 09:21:19;;;;;;;3.67;3.38;;;;;;;-0.27;90.60;101256.19;4932755;29;20027;-63
2022/12/12 09:23:44;;;;;;;3.20;3.00;;;;;;;-0.22;91.09;101266.56;4932625;29;20070;-63
2022/12/12 09:26:09;;;;;;;3.60;3.30;;;;;;;-0.23;90.81;101264.00;4933031;29;20023;-63
2022/12/12 09:28:35;;;;;;;3.80;3.50;;;;;;;-0.42;90.89;101259.56;4932971;29;20106;-63
2022/12/12 09:31:04;;;;;;;3.58;3.28;;;;;;;-0.69;91.25;101255.84;4932830;29;20027;-63
2022/12/12 09:33:29;;;;;;;3.80;3.50;;;;;;;-0.86;91.55;101262.00;4932715;29;20368;-63
2022/12/12 09:35:59;;;;;;;3.80;3.50;;;;;;;-0.81;91.79;101259.72;4931776;29;20034;-63
2022/12/12 09:38:25;;;;;;;3.40;3.20;;;;;;;-0.72;91.89;101257.97;4932861;29;20024;-63
2022/12/12 09:40:55;;;;;;;3.80;3.50;;;;;;;-0.75;92.45;101252.88;4931964;29;20525;-63
2022/12/12 09:43:25;;;;;;;3.60;3.30;;;;;;;-0.75;93.17;101259.13;4932335;29;20031;-63
2022/12/12 09:45:51;;;;;;;3.45;3.15;;;;;;;-0.56;92.96;101253.66;4932524;29;20106;-63
2022/12/12 09:48:43;;;;;;;3.70;3.40;;;;;;;-0.34;91.93;101255.13;4932423;29;20035;-63
2022/12/12 09:51:10;;;;;;;3.53;3.22;;;;;;;-0.15;90.48;101246.06;4932025;29;20028;-63
2022/12/12 09:53:37;;;;;;;3.28;3.08;;;;;;;0.24;89.58;101248.47;4932595;29;20047;-63
2022/12/12 09:56:13;;;;;;;3.37;3.17;;;;;;;0.81;87.33;101240.03;4932084;29;20052;-63
2022/12/12 09:59:20;;;;;;;3.15;2.95;;;;;;;1.89;85.18;101244.00;4932429;29;20083;-64
2022/12/12 10:01:55;;;;;;;3.20;3.00;;;;;;;3.49;79.04;101233.47;4923728;29;20071;-63
2022/12/12 10:04:38;;;;;;;3.00;2.80;;;;;;;4.85;74.01;101225.66;4932146;29;20029;-62
2022/12/12 10:07:19;;;;;;;2.90;2.70;;;;;;;5.96;66.37;101227.50;4932019;29;20506;-63
2022/12/12 10:10:08;;;;;;;2.70;2.50;;;;;;;6.93;64.91;101224.28;4931526;29;20106;-63
2022/12/12 10:12:34;;;;;;;2.80;2.60;;;;;;;8.02;58.87;101227.25;4931222;29;20371;-62
2022/12/12 10:15:05;;;;;;;2.67;2.47;;;;;;;8.91;55.95;101228.94;4931746;29;20035;-63
2022/12/12 10:17:39;;;;;;;2.70;2.50;;;;;;;10.00;53.66;101228.31;4932214;29;20378;-63
2022/12/12 10:20:13;;;;;;;2.60;2.40;;;;;;;10.37;50.06;101226.66;4931091;29;20148;-63
2022/12/12 10:23:09;;;;;;;2.40;2.20;;;;;;;10.89;52.56;101225.44;4932141;29;20071;-63
2022/12/12 10:26:06;;;;;;;2.35;2.20;;;;;;;11.11;52.83;101225.06;4931485;29;20024;-62
2022/12/12 10:28:31;;;;;;;2.40;2.20;;;;;;;11.12;46.59;101224.84;4932397;29;20059;-63
2022/12/12 10:31:21;;;;;;;2.30;2.20;;;;;;;11.28;50.46;101223.41;4930240;29;20537;-63
2022/12/12 10:34:08;;;;;;;2.30;2.20;;;;;;;11.42;46.36;101224.13;4930752;29;20027;-63
2022/12/12 10:36:58;;;;;;;2.30;2.10;;;;;;;11.18;46.19;101231.34;4930179;29;20035;-63
2022/12/12 10:39:52;;;;;;;2.17;2.03;;;;;;;11.27;49.48;101224.50;4931927;29;20091;-63
2022/12/12 10:42:41;;;;;;;2.50;2.30;;;;;;;11.44;49.80;101214.56;4929510;29;20031;-63
2022/12/12 10:45:25;;;;;;;2.10;2.00;;;;;;;11.62;45.89;101218.44;4911430;29;20106;-63
2022/12/12 10:47:51;;;;;;;2.30;2.20;;;;;;;11.54;43.26;101216.81;4912934;29;20452;-63
2022/12/12 10:50:26;;;;;;;1.95;1.83;;;;;;;11.73;44.89;101203.91;4912543;29;20103;-64
2022/12/12 10:52:51;;;;;;;2.30;2.10;;;;;;;11.59;42.26;101207.88;4913327;29;20058;-63
2022/12/12 10:55:21;;;;;;;2.10;2.00;;;;;;;11.39;42.53;101208.91;4912822;29;20571;-64
2022/12/12 10:57:46;;;;;;;2.13;2.00;;;;;;;11.15;43.28;101212.53;4910445;29;20046;-64
2022/12/12 11:00:28;;;;;;;2.00;1.90;;;;;;;11.30;46.29;101210.28;4917434;29;20519;-64
2022/12/12 11:02:56;;;;;;;2.05;1.95;;;;;;;11.60;43.04;101215.03;4930992;29;20086;-63
2022/12/12 11:05:33;;;;;;;2.20;2.10;;;;;;;12.36;42.74;101202.69;4930598;29;20616;-64
2022/12/12 11:08:16;;;;;;;1.95;1.85;;;;;;;12.81;41.57;101205.81;4931253;29;20019;-64
2022/12/12 11:10:42;;;;;;;1.80;1.70;;;;;;;12.76;39.47;101199.31;4930671;29;20046;-64
2022/12/12 11:13:07;;;;;;;2.10;2.00;;;;;;;12.64;38.66;101204.81;4931518;29;20035;-64
2022/12/12 11:15:50;;;;;;;2.15;2.05;;;;;;;12.51;43.18;101203.09;4931422;29;20059;-64
2022/12/12 11:18:18;;;;;;;1.90;1.80;;;;;;;12.15;40.29;101201.28;4930325;29;20040;-63
2022/12/12 11:20:48;;;;;;;;;;;;;;;12.92;45.16;101191.19;4928770;29;20032;-64
2022/12/12 11:23:18;;;;;;;2.20;2.10;;;;;;;12.92;38.93;101196.72;4929803;29;20013;-63
2022/12/12 11:25:44;;;;;;;2.20;2.10;;;;;;;12.50;38.16;101195.91;4928335;29;20035;-63
2022/12/12 11:28:18;;;;;;;2.10;1.80;;;;;;;12.11;39.52;101194.56;4931093;29;20032;-63
2022/12/12 11:30:43;;;;;;;2.05;1.95;;;;;;;11.91;40.14;101201.19;4930322;29;20031;-64
2022/12/12 11:33:20;;;;;;;1.95;1.85;;;;;;;11.57;41.93;101193.50;4931256;29;20482;-64
2022/12/12 11:35:45;;;;;;;1.90;1.80;;;;;;;10.83;40.93;101198.03;4929738;29;20498;-64
2022/12/12 11:38:21;;;;;;;1.90;1.80;;;;;;;10.03;44.14;101197.66;4931618;29;20067;-64
2022/12/12 11:40:58;;;;;;;2.10;1.98;;;;;;;10.03;44.47;101194.91;4928380;29;20028;-63
2022/12/12 11:43:27;;;;;;;2.00;1.90;;;;;;;9.87;43.39;101188.88;4930259;29;20122;-64
2022/12/12 11:46:14;;;;;;;1.80;1.70;;;;;;;9.41;46.04;101189.03;4929900;29;20082;-64